createdAt,value
2022-10-27T00:01:05.419Z,102233.88
2022-10-27T00:04:06.846Z,102233.94
2022-10-27T00:07:08.331Z,102228.81
2022-10-27T00:10:09.839Z,102230.56
2022-10-27T00:13:13.343Z,102229.75
2022-10-27T00:16:15.599Z,102235.84
2022-10-27T00:19:16.963Z,102249.75
2022-10-27T00:22:18.323Z,102254.06
2022-10-27T00:25:19.671Z,102255.75
2022-10-27T00:28:21.793Z,102254.06
2022-10-27T00:31:23.678Z,102254.19
2022-10-27T00:34:25.009Z,102251.66
2022-10-27T00:37:28.217Z,102261.19
2022-10-27T00:40:29.668Z,102258.66
2022-10-27T00:43:32.605Z,102259.59
2022-10-27T00:46:41.107Z,102259.66
2022-10-27T00:49:49.436Z,102265.72
2022-10-27T00:52:56.036Z,102274.38
2022-10-27T00:55:57.385Z,102271.84
2022-10-27T00:58:59.473Z,102271.84
2022-10-27T01:02:00.975Z,102277.91
2022-10-27T01:05:08.625Z,102274.47
2022-10-27T01:08:10.289Z,102275.44
2022-10-27T01:11:11.670Z,102284.13
2022-10-27T01:14:13.062Z,102283.38
2022-10-27T01:17:44.818Z,102282.50
2022-10-27T01:21:28.488Z,102281.56
2022-10-27T01:24:44.390Z,102290.22
2022-10-27T01:28:31.001Z,102280.84
2022-10-27T01:31:40.848Z,102292.06
2022-10-27T01:34:53.182Z,102292.19
2022-10-27T01:38:06.321Z,102287.09
2022-10-27T01:41:24.439Z,102299.25
2022-10-27T01:44:36.786Z,102288.00
2022-10-27T01:47:38.915Z,102295.78
2022-10-27T01:50:56.852Z,102303.56
2022-10-27T01:54:04.112Z,102310.53
2022-10-27T01:57:27.295Z,102308.13
2022-10-27T02:00:32.328Z,102315.94
2022-10-27T02:03:38.120Z,102315.94
2022-10-27T02:06:52.075Z,102320.41
2022-10-27T02:10:05.776Z,102328.22
2022-10-27T02:13:08.212Z,102329.94
2022-10-27T02:16:18.120Z,102323.09
2022-10-27T02:19:21.005Z,102330.16
2022-10-27T02:22:27.330Z,102341.53
2022-10-27T02:25:36.428Z,102344.16
2022-10-27T02:28:46.956Z,102346.03
2022-10-27T02:31:51.593Z,102351.28
2022-10-27T02:34:53.574Z,102345.22
2022-10-27T02:37:57.896Z,102345.22
2022-10-27T02:40:59.253Z,102343.56
2022-10-27T02:44:00.576Z,102343.63
2022-10-27T02:47:02.226Z,102355.63
2022-10-27T02:50:03.825Z,102347.03
2022-10-27T02:53:05.169Z,102356.56
2022-10-27T02:56:06.762Z,102359.19
2022-10-27T02:59:08.091Z,102365.34
2022-10-27T03:02:09.796Z,102370.53
2022-10-27T03:05:11.231Z,102375.81
2022-10-27T03:08:12.590Z,102376.56
2022-10-27T03:11:13.921Z,102380.81
2022-10-27T03:14:15.289Z,102379.00
2022-10-27T03:17:16.626Z,102389.34
2022-10-27T03:20:17.987Z,102381.59
2022-10-27T03:23:19.338Z,102385.88
2022-10-27T03:26:20.731Z,102391.84
2022-10-27T03:29:22.048Z,102394.38
2022-10-27T03:32:23.444Z,102387.38
2022-10-27T03:35:24.762Z,102392.56
2022-10-27T03:38:26.224Z,102387.47
2022-10-27T03:41:27.634Z,102390.13
2022-10-27T03:44:28.986Z,102388.41
2022-10-27T03:47:30.324Z,102391.88
2022-10-27T03:50:32.331Z,102397.09
2022-10-27T03:53:33.677Z,102395.34
2022-10-27T03:56:35.033Z,102402.31
2022-10-27T03:59:36.383Z,102408.44
2022-10-27T04:02:37.747Z,102406.78
2022-10-27T04:05:39.111Z,102414.59
2022-10-27T04:08:40.456Z,102412.06
2022-10-27T04:11:44.451Z,102412.91
2022-10-27T04:14:46.212Z,102413.78
2022-10-27T04:17:47.596Z,102406.00
2022-10-27T04:20:48.928Z,102418.94
2022-10-27T04:23:50.277Z,102406.00
2022-10-27T04:26:51.653Z,102406.78
2022-10-27T04:29:52.972Z,102402.56
2022-10-27T04:32:54.345Z,102404.25
2022-10-27T04:35:56.677Z,102400.78
2022-10-27T04:38:58.150Z,102401.63
2022-10-27T04:41:59.622Z,102392.25
2022-10-27T04:45:00.989Z,102406.00
2022-10-27T04:48:03.097Z,102406.06
2022-10-27T04:51:04.539Z,102408.66
2022-10-27T04:54:06.086Z,102403.41
2022-10-27T04:57:07.426Z,102404.22
2022-10-27T05:00:09.671Z,102395.56
2022-10-27T05:03:11.058Z,102404.16
2022-10-27T05:06:12.401Z,102409.31
2022-10-27T05:09:13.782Z,102405.84
2022-10-27T05:12:15.158Z,102408.34
2022-10-27T05:15:16.991Z,102423.69
2022-10-27T05:18:18.374Z,102423.63
2022-10-27T05:21:19.747Z,102432.22
2022-10-27T05:24:21.086Z,102424.66
2022-10-27T05:27:22.431Z,102418.00
2022-10-27T05:30:23.774Z,102417.34
2022-10-27T05:33:26.671Z,102416.75
2022-10-27T05:36:28.004Z,102424.91
2022-10-27T05:39:29.339Z,102429.66
2022-10-27T05:42:30.701Z,102433.34
2022-10-27T05:45:32.095Z,102439.28
2022-10-27T05:48:33.609Z,102441.81
2022-10-27T05:51:34.945Z,102437.66
2022-10-27T05:54:36.266Z,102443.84
2022-10-27T05:57:37.610Z,102432.75
2022-10-27T06:00:39.390Z,102443.19
2022-10-27T06:03:40.742Z,102437.19
2022-10-27T06:06:42.079Z,102430.28
2022-10-27T06:09:43.424Z,102437.13
2022-10-27T06:12:44.798Z,102442.34
2022-10-27T06:15:46.332Z,102446.69
2022-10-27T06:18:47.805Z,102446.75
2022-10-27T06:21:49.136Z,102445.91
2022-10-27T06:24:50.570Z,102447.66
2022-10-27T06:27:52.075Z,102460.53
2022-10-27T06:30:53.624Z,102457.09
2022-10-27T06:33:54.962Z,102457.81
2022-10-27T06:36:56.283Z,102449.88
2022-10-27T06:39:57.667Z,102447.16
2022-10-27T06:43:06.574Z,102445.31
2022-10-27T06:46:08.799Z,102449.47
2022-10-27T06:49:11.401Z,102451.94
2022-10-27T06:52:14.552Z,102448.44
2022-10-27T06:55:16.000Z,102465.63
2022-10-27T06:58:17.336Z,102466.44
2022-10-27T07:01:18.793Z,102460.31
2022-10-27T07:04:20.260Z,102461.09
2022-10-27T07:07:21.632Z,102468.78
2022-10-27T07:10:23.053Z,102467.91
2022-10-27T07:13:24.453Z,102470.47
2022-10-27T07:16:25.773Z,102473.03
2022-10-27T07:19:27.116Z,102476.50
2022-10-27T07:22:28.461Z,102466.94
2022-10-27T07:25:31.923Z,102473.78
2022-10-27T07:28:33.673Z,102475.53
2022-10-27T07:31:35.158Z,102477.94
2022-10-27T07:34:36.502Z,102478.59
2022-10-27T07:37:48.122Z,102479.09
2022-10-27T07:40:49.534Z,102495.22
2022-10-27T07:43:50.850Z,102489.84
2022-10-27T07:46:53.133Z,102492.34
2022-10-27T07:49:54.470Z,102503.22
2022-10-27T07:52:56.864Z,102495.25
2022-10-27T07:55:58.918Z,102491.72
2022-10-27T07:59:00.299Z,102489.84
2022-10-27T08:02:01.802Z,102487.94
2022-10-27T08:05:03.370Z,102488.66
2022-10-27T08:08:06.939Z,102488.34
2022-10-27T08:11:08.252Z,102486.84
2022-10-27T08:14:10.247Z,102487.13
2022-10-27T08:17:11.700Z,102487.50
2022-10-27T08:20:13.028Z,102484.47
2022-10-27T08:23:17.017Z,102479.94
2022-10-27T08:26:18.362Z,102480.31
2022-10-27T08:29:19.699Z,102482.19
2022-10-27T08:32:21.128Z,102492.03
2022-10-27T08:35:23.385Z,102486.41
2022-10-27T08:38:24.696Z,102485.06
2022-10-27T08:41:38.352Z,102485.03
2022-10-27T08:45:00.319Z,102484.97
2022-10-27T08:48:01.885Z,102487.63
2022-10-27T08:51:05.484Z,102479.91
2022-10-27T08:54:07.180Z,102479.19
2022-10-27T08:57:13.114Z,102474.31
2022-10-27T09:00:15.098Z,102471.19
2022-10-27T09:03:36.461Z,102468.69
2022-10-27T09:07:09.964Z,102473.22
2022-10-27T09:10:49.057Z,102475.41
2022-10-27T09:14:22.319Z,102474.00
2022-10-27T09:17:28.324Z,102471.69
2022-10-27T09:20:36.732Z,102468.88
2022-10-27T09:23:43.827Z,102465.25
2022-10-27T09:26:47.987Z,102467.00
2022-10-27T09:29:51.768Z,102461.75
2022-10-27T09:32:56.053Z,102454.00
2022-10-27T09:35:58.131Z,102456.38
2022-10-27T09:38:59.470Z,102456.47
2022-10-27T09:42:00.826Z,102461.84
2022-10-27T09:45:04.027Z,102454.84
2022-10-27T09:48:10.190Z,102455.91
2022-10-27T09:51:23.318Z,102461.88
2022-10-27T09:54:55.738Z,102457.81
2022-10-27T09:58:02.318Z,102459.50
2022-10-27T10:01:03.867Z,102452.88
2022-10-27T10:04:28.985Z,102458.53
2022-10-27T10:07:40.138Z,102456.69
2022-10-27T10:10:59.996Z,102460.13
2022-10-27T10:14:01.604Z,102458.75
2022-10-27T10:17:02.994Z,102458.16
2022-10-27T10:20:06.417Z,102458.69
2022-10-27T10:23:20.508Z,102447.84
2022-10-27T10:26:24.753Z,102455.03
2022-10-27T10:29:45.486Z,102447.13
2022-10-27T10:32:54.098Z,102446.66
2022-10-27T10:35:55.902Z,102448.59
2022-10-27T10:38:59.327Z,102434.44
2022-10-27T10:42:09.853Z,102433.09
2022-10-27T10:45:22.984Z,102428.63
2022-10-27T10:48:27.281Z,102427.94
2022-10-27T10:51:32.381Z,102425.69
2022-10-27T10:54:40.272Z,102430.91
2022-10-27T10:57:44.133Z,102434.78
2022-10-27T11:00:54.953Z,102425.44
2022-10-27T11:03:57.090Z,102425.09
2022-10-27T11:07:14.913Z,102420.72
2022-10-27T11:10:21.001Z,102418.00
2022-10-27T11:13:38.758Z,102412.44
2022-10-27T11:17:00.770Z,102398.41
2022-10-27T11:20:05.206Z,102396.31
2022-10-27T11:23:17.846Z,102380.41
2022-10-27T11:26:32.883Z,102378.94
2022-10-27T11:30:01.912Z,102378.44
2022-10-27T11:33:25.503Z,102365.56
2022-10-27T11:36:49.441Z,102369.66
2022-10-27T11:40:01.507Z,102361.16
2022-10-27T11:43:15.095Z,102361.25
2022-10-27T11:46:25.749Z,102370.03
2022-10-27T11:49:37.038Z,102361.63
2022-10-27T11:52:52.488Z,102357.34
2022-10-27T11:56:15.472Z,102360.28
2022-10-27T11:59:39.129Z,102351.81
2022-10-27T12:03:02.335Z,102356.00
2022-10-27T12:06:16.239Z,102356.94
2022-10-27T12:09:34.846Z,102341.97
2022-10-27T12:12:47.268Z,102341.44
2022-10-27T12:15:59.904Z,102347.41
2022-10-27T12:19:05.595Z,102335.16
2022-10-27T12:22:27.154Z,102328.78
2022-10-27T12:25:35.940Z,102331.72
2022-10-27T12:28:37.480Z,102338.34
2022-10-27T12:31:44.893Z,102324.63
2022-10-27T12:34:57.143Z,102311.31
2022-10-27T12:38:18.280Z,102305.44
2022-10-27T12:41:31.188Z,102307.84
2022-10-27T12:44:41.575Z,102309.19
2022-10-27T12:48:08.865Z,102308.63
2022-10-27T12:51:40.089Z,102303.19
2022-10-27T12:55:12.773Z,102302.47
2022-10-27T12:58:20.073Z,102292.72
2022-10-27T13:01:53.735Z,102292.84
2022-10-27T13:05:21.209Z,102282.25
2022-10-27T13:08:25.581Z,102276.75
2022-10-27T13:12:04.296Z,102272.13
2022-10-27T13:15:11.598Z,102270.38
2022-10-27T13:18:25.408Z,102263.56
2022-10-27T13:21:29.740Z,102264.38
2022-10-27T13:24:37.258Z,102256.75
2022-10-27T13:27:38.530Z,102248.06
2022-10-27T13:30:43.462Z,102247.41
2022-10-27T13:34:07.849Z,102251.50
2022-10-27T13:37:43.062Z,102247.50
2022-10-27T13:40:44.439Z,102248.66
2022-10-27T13:43:46.616Z,102249.72
2022-10-27T13:47:04.547Z,102251.09
2022-10-27T13:50:32.127Z,102249.53
2022-10-27T13:53:33.497Z,102247.94
2022-10-27T13:56:37.562Z,102237.03
2022-10-27T13:59:39.287Z,102236.28
2022-10-27T14:02:53.083Z,102230.44
2022-10-27T14:05:55.048Z,102237.72
2022-10-27T14:09:00.184Z,102228.19
2022-10-27T14:12:15.176Z,102234.53
2022-10-27T14:15:22.408Z,102230.53
2022-10-27T14:18:32.551Z,102224.00
2022-10-27T14:21:39.791Z,102221.88
2022-10-27T14:24:56.553Z,102216.47
2022-10-27T14:28:15.399Z,102214.31
2022-10-27T14:31:19.915Z,102211.69
2022-10-27T14:34:26.388Z,102210.03
2022-10-27T14:37:30.375Z,102211.88
2022-10-27T14:40:37.698Z,102206.56
2022-10-27T14:43:41.484Z,102209.06
2022-10-27T14:46:46.081Z,102206.56
2022-10-27T14:49:50.945Z,102193.06
2022-10-27T14:52:56.587Z,102197.59
2022-10-27T14:56:28.148Z,102196.44
2022-10-27T14:59:29.497Z,102192.28
2022-10-27T15:02:30.978Z,102189.09
2022-10-27T15:05:37.963Z,102193.84
2022-10-27T15:08:43.833Z,102195.97
2022-10-27T15:11:46.533Z,102192.13
2022-10-27T15:14:48.355Z,102177.28
2022-10-27T15:17:50.001Z,102168.16
2022-10-27T15:20:52.114Z,102177.00
2022-10-27T15:24:00.894Z,102184.44
2022-10-27T15:27:04.090Z,102190.75
2022-10-27T15:30:06.284Z,102190.94
2022-10-27T15:33:26.126Z,102194.88
2022-10-27T15:36:27.586Z,102184.81
2022-10-27T15:39:28.934Z,102181.97
2022-10-27T15:42:37.088Z,102176.41
2022-10-27T15:45:43.179Z,102180.25
2022-10-27T15:48:48.075Z,102176.31
2022-10-27T15:51:56.833Z,102186.25
2022-10-27T15:54:58.192Z,102183.06
2022-10-27T15:58:25.457Z,102181.78
2022-10-27T16:01:34.734Z,102180.19
2022-10-27T16:04:38.568Z,102183.06
2022-10-27T16:07:39.926Z,102170.38
2022-10-27T16:10:41.516Z,102169.00
2022-10-27T16:13:46.088Z,102166.72
2022-10-27T16:16:47.452Z,102170.25
2022-10-27T16:19:50.392Z,102170.09
2022-10-27T16:22:52.022Z,102165.97
2022-10-27T16:25:53.797Z,102166.13
2022-10-27T16:29:00.642Z,102161.09
2022-10-27T16:32:02.368Z,102152.50
2022-10-27T16:35:04.022Z,102161.44
2022-10-27T16:38:05.734Z,102158.13
2022-10-27T16:41:14.506Z,102154.63
2022-10-27T16:44:15.850Z,102151.31
2022-10-27T16:47:18.385Z,102143.69
2022-10-27T16:50:20.610Z,102144.97
2022-10-27T16:53:22.048Z,102136.50
2022-10-27T16:56:23.431Z,102138.19
2022-10-27T16:59:24.846Z,102133.66
2022-10-27T17:02:26.292Z,102130.97
2022-10-27T17:05:27.684Z,102127.53
2022-10-27T17:08:31.290Z,102127.63
2022-10-27T17:11:35.543Z,102125.25
2022-10-27T17:14:36.872Z,102121.81
2022-10-27T17:17:38.204Z,102118.28
2022-10-27T17:20:42.542Z,102122.56
2022-10-27T17:23:43.957Z,102118.28
2022-10-27T17:26:45.277Z,102115.78
2022-10-27T17:29:46.605Z,102111.56
2022-10-27T17:32:47.953Z,102110.78
2022-10-27T17:36:00.697Z,102115.06
2022-10-27T17:39:02.167Z,102105.75
2022-10-27T17:42:03.640Z,102103.13
2022-10-27T17:45:07.074Z,102102.16
2022-10-27T17:48:08.428Z,102102.97
2022-10-27T17:51:15.172Z,102100.88
2022-10-27T17:54:16.493Z,102078.88
2022-10-27T17:57:18.478Z,102053.38
2022-10-27T18:00:20.148Z,102037.41
2022-10-27T18:03:23.740Z,102055.03
2022-10-27T18:06:27.001Z,102065.22
2022-10-27T18:09:28.324Z,102075.56
2022-10-27T18:12:29.668Z,102067.66
2022-10-27T18:15:35.773Z,102070.34
2022-10-27T18:18:38.673Z,102063.63
2022-10-27T18:21:42.627Z,102064.53
2022-10-27T18:24:43.974Z,102062.94
2022-10-27T18:27:45.315Z,102057.00
2022-10-27T18:30:46.651Z,102051.88
2022-10-27T18:33:48.045Z,102059.00
2022-10-27T18:36:49.506Z,102048.75
2022-10-27T18:39:50.837Z,102043.09
2022-10-27T18:42:54.036Z,102042.88
2022-10-27T18:46:06.781Z,102044.56
2022-10-27T18:49:15.626Z,102029.00
2022-10-27T18:52:17.735Z,102031.69
2022-10-27T18:55:19.097Z,102029.84
2022-10-27T18:58:20.438Z,102021.34
2022-10-27T19:01:23.233Z,102013.63
2022-10-27T19:04:24.766Z,102006.06
2022-10-27T19:07:28.947Z,102008.09
2022-10-27T19:10:31.495Z,102012.69
2022-10-27T19:13:34.003Z,102005.06
2022-10-27T19:16:35.374Z,102007.66
2022-10-27T19:19:36.710Z,102014.88
2022-10-27T19:22:38.078Z,102023.72
2022-10-27T19:25:39.444Z,102025.66
2022-10-27T19:28:42.205Z,102028.50
2022-10-27T19:31:43.689Z,102034.00
2022-10-27T19:34:47.630Z,102036.84
2022-10-27T19:37:51.605Z,102041.38
2022-10-27T19:40:53.223Z,102039.09
2022-10-27T19:43:55.997Z,102031.53
2022-10-27T19:46:57.487Z,102034.63
2022-10-27T19:49:59.007Z,102038.41
2022-10-27T19:53:00.344Z,102031.66
2022-10-27T19:56:01.780Z,102032.75
2022-10-27T19:59:03.589Z,102032.13
2022-10-27T20:02:06.257Z,102025.41
2022-10-27T20:05:07.889Z,102042.91
2022-10-27T20:08:09.253Z,102038.03
2022-10-27T20:11:14.290Z,102041.47
2022-10-27T20:14:16.196Z,102041.63
2022-10-27T20:17:17.581Z,102031.41
2022-10-27T20:20:18.957Z,102040.34
2022-10-27T20:23:20.335Z,102036.97
2022-10-27T20:26:29.068Z,102038.81
2022-10-27T20:29:35.176Z,102041.09
2022-10-27T20:32:41.336Z,102037.59
2022-10-27T20:35:44.979Z,102032.56
2022-10-27T20:38:46.413Z,102036.06
2022-10-27T20:41:47.959Z,102036.31
2022-10-27T20:44:49.308Z,102036.31
2022-10-27T20:47:50.738Z,102035.69
2022-10-27T20:51:00.706Z,102022.91
2022-10-27T20:54:02.141Z,102023.06
2022-10-27T20:57:03.531Z,102020.38
2022-10-27T21:00:05.606Z,102010.91
2022-10-27T21:03:07.042Z,102014.50
2022-10-27T21:06:08.450Z,102012.81
2022-10-27T21:09:12.505Z,102003.50
2022-10-27T21:12:13.859Z,102001.13
2022-10-27T21:15:15.236Z,102003.88
2022-10-27T21:18:16.607Z,102001.41
2022-10-27T21:21:19.067Z,101999.88
2022-10-27T21:24:20.504Z,102002.81
2022-10-27T21:27:21.852Z,101995.09
2022-10-27T21:33:30.855Z,101991.75
2022-10-27T21:36:32.851Z,101990.16
2022-10-27T21:39:34.205Z,101994.59
2022-10-27T21:42:35.641Z,101992.00
2022-10-27T21:45:36.984Z,101994.78
2022-10-27T21:48:38.348Z,101988.84
2022-10-27T21:51:39.900Z,101991.44
2022-10-27T21:54:41.225Z,101997.53
2022-10-27T21:57:42.540Z,101998.53
2022-10-27T22:00:43.893Z,102000.28
2022-10-27T22:03:45.813Z,101994.31
2022-10-27T22:06:47.141Z,101992.72
2022-10-27T22:09:48.485Z,102007.53
2022-10-27T22:12:50.215Z,101999.00
2022-10-27T22:15:51.805Z,101991.94
2022-10-27T22:19:01.539Z,101999.59
2022-10-27T22:25:09.982Z,101997.25
2022-10-27T22:28:11.301Z,102001.25
2022-10-27T22:31:25.397Z,101994.09
2022-10-27T22:34:26.796Z,101987.75
2022-10-27T22:37:28.210Z,101994.47
2022-10-27T22:40:29.553Z,101992.47
2022-10-27T22:43:31.234Z,102004.41
2022-10-27T22:46:33.574Z,102012.13
2022-10-27T22:49:34.954Z,102011.22
2022-10-27T22:52:36.307Z,102019.63
2022-10-27T22:55:37.624Z,102025.66
2022-10-27T22:58:39.551Z,102014.34
2022-10-27T23:01:41.040Z,102017.03
2022-10-27T23:04:42.487Z,102010.06
2022-10-27T23:07:43.851Z,102015.25
2022-10-27T23:10:45.184Z,102025.56
2022-10-27T23:13:46.518Z,102023.97
2022-10-27T23:16:47.871Z,102010.97
2022-10-27T23:19:49.195Z,102018.19
2022-10-27T23:22:51.012Z,102018.38
2022-10-27T23:25:53.102Z,102023.00
2022-10-27T23:28:59.165Z,102023.19
2022-10-27T23:32:00.495Z,102023.19
2022-10-27T23:35:01.832Z,102025.66
2022-10-27T23:38:03.592Z,102026.50
2022-10-27T23:41:05.185Z,102028.94
2022-10-27T23:44:06.657Z,102031.34
2022-10-27T23:47:08.008Z,102031.16
2022-10-27T23:50:09.779Z,102036.97
2022-10-27T23:53:11.435Z,102035.97
2022-10-27T23:56:13.125Z,102040.97
2022-10-27T23:59:14.459Z,102037.38
